Time;durP1;ratioP1;P1;durP2;ratioP2;P2;SDS_P1;SDS_P2;PMS_P1;PMS_P2;Temp;Humidity;BMP_temperature;BMP_pressure;BME280_temperature;BME280_humidity;BME280_pressure;Samples;Min_cycle;Max_cycle;Signal;HPM_P1;HPM_P2
2023/11/04 00:02:04;;;;;;;10.53;8.50;;;;;;;14.99;100.00;93459.56;5032263;28;20449;-75
2023/11/04 00:04:32;;;;;;;11.60;8.03;;;;;;;15.10;100.00;93448.47;5014115;28;20492;-73
2023/11/04 00:07:00;;;;;;;13.63;7.00;;;;;;;15.06;100.00;93442.75;5032732;28;20451;-72
2023/11/04 00:09:27;;;;;;;7.57;6.63;;;;;;;14.99;100.00;93456.91;5032663;28;20439;-73
2023/11/04 00:11:53;;;;;;;10.27;7.30;;;;;;;14.91;100.00;93443.84;5032433;28;20439;-73
2023/11/04 00:14:20;;;;;;;10.70;7.20;;;;;;;14.74;100.00;93424.81;5032454;28;20937;-73
2023/11/04 00:16:47;;;;;;;13.17;6.50;;;;;;;14.81;100.00;93404.59;5014178;28;20446;-73
2023/11/04 00:19:14;;;;;;;9.50;5.07;;;;;;;14.78;100.00;93384.66;5032267;28;20474;-73
2023/11/04 00:21:43;;;;;;;7.20;6.00;;;;;;;14.84;100.00;93375.13;5032736;28;20438;-72
2023/11/04 00:24:09;;;;;;;10.07;6.30;;;;;;;14.75;100.00;93382.41;5032515;28;20822;-72
2023/11/04 00:26:35;;;;;;;9.93;5.97;;;;;;;14.80;100.00;93382.63;5033781;28;20499;-74
2023/11/04 00:29:02;;;;;;;9.50;6.67;;;;;;;14.83;100.00;93378.78;5036219;28;20446;-73
2023/11/04 00:31:29;;;;;;;7.77;5.80;;;;;;;14.92;100.00;93401.41;5017989;28;20446;-74
2023/11/04 00:33:56;;;;;;;12.53;6.97;;;;;;;15.03;100.00;93414.06;5036192;28;20443;-74
2023/11/04 00:36:23;;;;;;;12.40;7.30;;;;;;;15.17;100.00;93399.13;5001649;28;20900;-74
2023/11/04 00:38:51;;;;;;;9.43;6.70;;;;;;;15.17;100.00;93399.13;5036790;28;20447;-74
2023/11/04 00:41:20;;;;;;;9.43;6.70;;;;;;;15.20;100.00;93406.66;5036419;28;20465;-74
2023/11/04 00:43:47;;;;;;;10.17;5.80;;;;;;;15.28;100.00;93401.22;5036259;28;20473;-75
2023/11/04 00:46:14;;;;;;;7.97;6.00;;;;;;;15.30;100.00;93395.72;5036049;28;20444;-73
2023/11/04 00:48:41;;;;;;;12.00;7.00;;;;;;;15.28;100.00;93395.91;5036144;28;20443;-74
2023/11/04 00:51:08;;;;;;;7.60;6.60;;;;;;;15.27;100.00;93398.75;5035843;28;20442;-73
2023/11/04 00:53:35;;;;;;;11.80;6.80;;;;;;;15.30;100.00;93382.50;5035900;28;20811;-74
2023/11/04 00:56:04;;;;;;;17.87;6.30;;;;;;;15.31;100.00;93379.66;5035624;28;20454;-76
2023/11/04 00:58:31;;;;;;;10.27;6.93;;;;;;;15.33;100.00;93380.31;5035442;28;20451;-73
2023/11/04 01:00:58;;;;;;;6.67;5.97;;;;;;;15.31;100.00;93361.16;5035548;28;20805;-73
2023/11/04 01:03:25;;;;;;;8.63;6.67;;;;;;;15.29;100.00;93373.75;5017315;28;20463;-74
2023/11/04 01:05:52;;;;;;;9.60;6.03;;;;;;;15.33;100.00;93367.09;5035349;28;20489;-74
2023/11/04 01:08:19;;;;;;;10.17;6.10;;;;;;;15.30;100.00;93383.31;5036000;28;20446;-74
2023/11/04 01:10:47;;;;;;;10.87;6.10;;;;;;;15.31;100.00;93390.25;5035772;28;20472;-74
2023/11/04 01:13:16;;;;;;;8.83;6.87;;;;;;;15.27;100.00;93370.50;5035888;28;20442;-74
2023/11/04 01:15:42;;;;;;;10.97;5.70;;;;;;;15.39;100.00;93379.53;5035356;28;20455;-74
2023/11/04 01:18:09;;;;;;;11.40;6.73;;;;;;;15.36;100.00;93372.00;5034900;28;20455;-74
2023/11/04 01:20:36;;;;;;;12.47;7.43;;;;;;;15.37;100.00;93373.63;5016761;28;20440;-74
2023/11/04 01:23:03;;;;;;;8.73;7.27;;;;;;;15.32;100.00;93369.91;5035552;28;20448;-74
2023/11/04 01:25:30;;;;;;;10.50;7.03;;;;;;;15.26;100.00;93371.50;5035374;28;20488;-74
2023/11/04 01:27:57;;;;;;;10.00;7.00;;;;;;;15.17;100.00;93370.06;5035528;28;20438;-73
2023/11/04 01:30:25;;;;;;;13.20;7.10;;;;;;;15.15;100.00;93358.88;5035620;28;20473;-74
2023/11/04 01:32:52;;;;;;;9.07;6.57;;;;;;;15.13;100.00;93355.59;5035111;28;20448;-74
2023/11/04 01:35:18;;;;;;;11.07;8.57;;;;;;;15.13;100.00;93371.47;5035035;28;20463;-73
2023/11/04 01:37:44;;;;;;;15.13;8.73;;;;;;;15.18;100.00;93380.44;5034522;28;20860;-74
2023/11/04 01:40:13;;;;;;;12.60;7.60;;;;;;;15.26;100.00;93368.88;5035117;28;20213;-74
2023/11/04 01:42:43;;;;;;;12.40;8.70;;;;;;;15.30;100.00;93390.44;5035123;28;20459;-74
2023/11/04 01:45:10;;;;;;;10.80;9.00;;;;;;;15.32;100.00;93391.06;5035182;28;21049;-74
2023/11/04 01:47:40;;;;;;;15.43;8.17;;;;;;;15.37;100.00;93400.06;5035666;28;20454;-73
2023/11/04 01:50:08;;;;;;;10.30;8.70;;;;;;;15.38;100.00;93430.75;5000497;28;20444;-73
2023/11/04 01:52:37;;;;;;;13.60;9.40;;;;;;;15.38;100.00;93438.69;5018116;28;20461;-75
2023/11/04 01:55:07;;;;;;;10.83;9.73;;;;;;;15.29;100.00;93471.56;5035949;28;20455;-74
2023/11/04 01:57:34;;;;;;;13.83;10.37;;;;;;;15.14;100.00;93474.31;5034847;28;20931;-74
2023/11/04 02:00:02;;;;;;;19.10;11.57;;;;;;;15.03;100.00;93481.94;5034716;28;20449;-74
2023/11/04 02:02:31;;;;;;;12.57;10.40;;;;;;;14.88;100.00;93452.97;5034897;28;20959;-74
2023/11/04 02:05:00;;;;;;;14.10;9.93;;;;;;;14.97;100.00;93459.75;5034472;28;20486;-75
2023/11/04 02:07:28;;;;;;;11.50;9.33;;;;;;;14.95;100.00;93472.31;5034481;28;20443;-74
2023/11/04 02:09:55;;;;;;;12.40;9.37;;;;;;;15.01;100.00;93487.41;5034714;28;20935;-73
2023/11/04 02:12:23;;;;;;;14.20;9.47;;;;;;;15.06;100.00;93479.75;5034814;28;20811;-74
2023/11/04 02:14:50;;;;;;;12.27;9.80;;;;;;;15.16;100.00;93493.44;5034559;28;20934;-74
2023/11/04 02:17:17;;;;;;;11.93;8.60;;;;;;;15.23;100.00;93482.91;5034397;28;20476;-73
2023/11/04 02:19:44;;;;;;;11.10;9.50;;;;;;;15.25;100.00;93485.34;5034315;28;20482;-72
2023/11/04 02:22:13;;;;;;;15.30;10.03;;;;;;;15.30;100.00;93489.03;5034174;28;20443;-73
2023/11/04 02:24:40;;;;;;;12.47;9.90;;;;;;;15.24;100.00;93454.66;5034249;28;20903;-74
2023/11/04 02:27:07;;;;;;;21.83;10.87;;;;;;;15.27;100.00;93449.78;5034055;28;20443;-74
2023/11/04 02:29:34;;;;;;;11.17;8.70;;;;;;;15.09;100.00;93460.06;5034053;28;20940;-74
2023/11/04 02:32:00;;;;;;;11.00;9.90;;;;;;;14.71;100.00;93457.69;5034334;28;20466;-74
2023/11/04 02:34:27;;;;;;;10.53;9.50;;;;;;;14.55;100.00;93457.97;5034849;28;20451;-74
2023/11/04 02:36:54;;;;;;;11.03;9.00;;;;;;;14.53;100.00;93460.81;5034422;28;20941;-74
2023/11/04 02:39:23;;;;;;;12.30;9.67;;;;;;;14.39;100.00;93458.19;5034181;28;20445;-74
2023/11/04 02:41:50;;;;;;;12.30;9.30;;;;;;;14.42;100.00;93442.78;5034204;28;20447;-74
2023/11/04 02:44:17;;;;;;;10.60;8.83;;;;;;;14.44;100.00;93455.81;4999506;28;20450;-74
2023/11/04 02:46:44;;;;;;;12.50;8.63;;;;;;;14.38;100.00;93452.09;5033825;28;20664;-75
2023/11/04 02:49:10;;;;;;;17.53;8.80;;;;;;;14.36;100.00;93446.19;5033518;28;20442;-74
2023/11/04 02:51:37;;;;;;;12.60;9.03;;;;;;;14.35;100.00;93441.09;5033339;28;20458;-74
2023/11/04 02:54:04;;;;;;;17.27;8.47;;;;;;;14.56;100.00;93475.44;5034127;28;20462;-74
2023/11/04 02:56:33;;;;;;;9.73;8.30;;;;;;;14.71;100.00;93462.16;5033881;28;20449;-74
2023/11/04 02:58:59;;;;;;;10.93;8.17;;;;;;;14.69;100.00;93432.50;5033899;28;20446;-74
2023/11/04 03:01:26;;;;;;;8.90;7.73;;;;;;;14.56;100.00;93407.63;5015435;28;20443;-75
2023/11/04 03:03:53;;;;;;;11.43;8.03;;;;;;;14.56;100.00;93434.03;5033831;28;20443;-75
2023/11/04 03:06:23;;;;;;;13.00;7.40;;;;;;;14.59;100.00;93422.28;5033543;28;20480;-73
2023/11/04 03:08:51;;;;;;;12.40;7.93;;;;;;;14.67;100.00;93398.38;5033718;28;20446;-74
2023/11/04 03:11:18;;;;;;;12.27;8.10;;;;;;;14.51;100.00;93411.84;4999023;28;20522;-74
2023/11/04 03:13:46;;;;;;;9.30;7.23;;;;;;;14.58;100.00;93381.03;5033425;28;20483;-73
2023/11/04 03:16:19;;;;;;;12.87;7.83;;;;;;;14.67;100.00;93379.88;5033297;28;20952;-73
2023/11/04 03:18:46;;;;;;;8.07;7.23;;;;;;;14.82;100.00;93390.38;5033146;28;20517;-74
2023/11/04 03:21:13;;;;;;;9.37;7.30;;;;;;;14.93;100.00;93367.88;5033588;28;20450;-73
2023/11/04 03:23:40;;;;;;;7.13;4.87;;;;;;;14.99;100.00;93365.28;5033294;28;20934;-73
2023/11/04 03:26:08;;;;;;;6.90;5.73;;;;;;;15.08;100.00;93361.47;5033170;28;20497;-74
2023/11/04 03:28:35;;;;;;;5.23;4.73;;;;;;;15.16;100.00;93360.50;5033325;28;20905;-73
2023/11/04 03:31:04;;;;;;;9.77;6.03;;;;;;;15.24;100.00;93347.13;5032996;28;20434;-73
2023/11/04 03:33:32;;;;;;;10.77;5.50;;;;;;;15.31;100.00;93341.84;5033417;28;20441;-74
2023/11/04 03:35:58;;;;;;;12.00;6.50;;;;;;;15.30;100.00;93348.97;5033165;28;20457;-74
2023/11/04 03:38:25;;;;;;;5.83;5.33;;;;;;;15.32;100.00;93323.16;5033318;28;20463;-73
2023/11/04 03:40:53;;;;;;;14.87;7.13;;;;;;;15.34;100.00;93315.06;5032663;28;20480;-74
2023/11/04 03:43:20;;;;;;;7.03;6.43;;;;;;;15.37;100.00;93323.41;5033822;28;20534;-74
2023/11/04 03:45:47;;;;;;;6.07;5.47;;;;;;;15.38;100.00;93327.69;5032858;28;20485;-74
2023/11/04 03:48:15;;;;;;;6.57;5.33;;;;;;;15.42;100.00;93315.69;5032765;28;20450;-74
2023/11/04 03:50:42;;;;;;;6.07;5.20;;;;;;;15.47;100.00;93313.25;5032926;28;20477;-73
2023/11/04 03:53:09;;;;;;;10.43;6.17;;;;;;;15.49;100.00;93305.13;5014252;28;20438;-74
2023/11/04 03:55:36;;;;;;;12.10;6.13;;;;;;;15.56;100.00;93302.50;5033072;28;20442;-74
2023/11/04 03:58:03;;;;;;;6.93;6.23;;;;;;;15.60;100.00;93328.38;5014573;28;20481;-74
2023/11/04 04:00:29;;;;;;;8.37;6.30;;;;;;;15.64;100.00;93315.59;5032883;28;20453;-74
2023/11/04 04:02:56;;;;;;;6.60;4.87;;;;;;;15.68;100.00;93322.94;5036615;28;20932;-74
2023/11/04 04:05:24;;;;;;;6.57;5.73;;;;;;;15.69;100.00;93315.81;5037364;28;20496;-75
2023/11/04 04:07:51;;;;;;;6.80;5.53;;;;;;;15.70;100.00;93314.78;5036342;28;20442;-74
2023/11/04 04:10:18;;;;;;;12.47;5.67;;;;;;;15.73;100.00;93327.63;5036829;28;20446;-74
2023/11/04 04:12:47;;;;;;;7.07;5.77;;;;;;;15.66;100.00;93314.38;5036788;28;20855;-74
2023/11/04 04:15:14;;;;;;;8.80;6.40;;;;;;;15.65;100.00;93307.47;5018381;28;20787;-74
2023/11/04 04:17:41;;;;;;;8.60;5.67;;;;;;;15.66;100.00;93310.91;5037451;28;20820;-74
2023/11/04 04:20:08;;;;;;;10.77;6.43;;;;;;;15.64;100.00;93310.31;5037094;28;20472;-74
2023/11/04 04:22:37;;;;;;;8.70;5.50;;;;;;;15.60;100.00;93316.97;5036558;28;20444;-74
2023/11/04 04:25:05;;;;;;;12.83;6.23;;;;;;;15.54;100.00;93309.81;5036681;28;20443;-73
2023/11/04 04:27:32;;;;;;;9.57;6.57;;;;;;;15.55;100.00;93298.22;5001578;28;20438;-74
2023/11/04 04:29:59;;;;;;;12.00;5.90;;;;;;;15.57;100.00;93309.41;5036548;28;20439;-74
2023/11/04 04:32:26;;;;;;;9.57;6.30;;;;;;;15.57;100.00;93291.72;5036536;28;20945;-73
2023/11/04 04:34:52;;;;;;;7.10;6.03;;;;;;;15.57;100.00;93296.19;5036621;28;20445;-73
2023/11/04 04:37:19;;;;;;;9.57;7.60;;;;;;;15.63;100.00;93295.47;5036812;28;20454;-73
2023/11/04 04:39:48;;;;;;;11.00;8.00;;;;;;;15.64;100.00;93299.72;5036659;28;20447;-74
2023/11/04 04:42:15;;;;;;;9.53;7.57;;;;;;;15.65;100.00;93311.94;5036655;28;20482;-74
2023/11/04 04:44:42;;;;;;;15.93;8.03;;;;;;;15.65;100.00;93339.19;5036123;28;20442;-74
2023/11/04 04:47:09;;;;;;;13.93;8.43;;;;;;;15.54;100.00;93397.88;5036334;28;20489;-73
2023/11/04 04:49:36;;;;;;;8.60;7.20;;;;;;;15.25;100.00;93448.34;5035878;28;21006;-72
2023/11/04 04:52:02;;;;;;;6.27;4.73;;;;;;;14.96;100.00;93436.16;5036575;28;20441;-72
2023/11/04 04:54:29;;;;;;;8.27;3.50;;;;;;;14.67;100.00;93431.88;5017766;28;20449;-73
2023/11/04 04:56:58;;;;;;;2.40;2.20;;;;;;;14.39;100.00;93471.38;5036268;28;20457;-72
2023/11/04 04:59:24;;;;;;;4.13;2.13;;;;;;;14.24;100.00;93455.63;5036012;28;20444;-74
2023/11/04 05:01:51;;;;;;;3.07;1.50;;;;;;;14.09;100.00;93462.75;5035674;28;20438;-75
2023/11/04 05:04:18;;;;;;;2.33;1.43;;;;;;;14.04;100.00;93442.22;5035974;28;20442;-72
2023/11/04 05:06:45;;;;;;;1.50;1.33;;;;;;;14.01;100.00;93426.75;5035874;28;20500;-73
2023/11/04 05:09:12;;;;;;;2.97;1.90;;;;;;;13.98;100.00;93431.59;5035741;28;20454;-73
2023/11/04 05:11:38;;;;;;;2.97;1.50;;;;;;;14.01;100.00;93439.94;5035298;28;20446;-73
2023/11/04 05:14:07;;;;;;;1.43;1.33;;;;;;;14.03;100.00;93427.38;5035528;28;20447;-74
2023/11/04 05:16:35;;;;;;;10.77;1.93;;;;;;;14.07;100.00;93433.91;5035867;28;20440;-72
2023/11/04 05:19:02;;;;;;;3.47;2.43;;;;;;;14.15;100.00;93468.09;5016843;28;20473;-73
2023/11/04 05:21:28;;;;;;;3.00;2.40;;;;;;;14.18;100.00;93483.56;5035592;28;20827;-73
2023/11/04 05:23:55;;;;;;;1.77;1.67;;;;;;;14.21;100.00;93495.56;5035766;28;20800;-73
2023/11/04 05:26:22;;;;;;;2.40;1.40;;;;;;;14.13;100.00;93478.00;5035476;28;20483;-73
2023/11/04 05:28:49;;;;;;;4.53;2.83;;;;;;;14.13;100.00;93470.09;5035787;28;20478;-74
2023/11/04 05:31:17;;;;;;;3.70;3.33;;;;;;;14.26;100.00;93486.09;5036124;28;20464;-73
2023/11/04 05:33:44;;;;;;;4.43;3.23;;;;;;;14.45;100.00;93494.41;5035589;28;20504;-73
2023/11/04 05:36:11;;;;;;;3.47;3.10;;;;;;;14.53;100.00;93481.13;5035482;28;20452;-73
2023/11/04 05:38:38;;;;;;;6.10;1.80;;;;;;;14.42;100.00;93461.25;5035259;28;20959;-72
2023/11/04 05:41:05;;;;;;;4.03;2.30;;;;;;;14.50;100.00;93447.19;5035540;28;20443;-72
2023/11/04 05:43:32;;;;;;;3.40;2.37;;;;;;;14.48;100.00;93438.63;5035560;28;20462;-75
2023/11/04 05:45:58;;;;;;;13.40;9.03;;;;;;;14.44;100.00;93426.78;5034656;28;20488;-74
2023/11/04 05:48:26;;;;;;;13.53;11.40;;;;;;;14.41;100.00;93420.03;5035387;28;20450;-72
2023/11/04 05:50:53;;;;;;;4.03;3.23;;;;;;;14.42;100.00;93399.75;5034939;28;20469;-73
2023/11/04 05:53:20;;;;;;;4.80;3.08;;;;;;;14.50;100.00;93408.41;5034459;28;20438;-72
2023/11/04 05:55:48;;;;;;;4.90;2.17;;;;;;;14.45;100.00;93425.78;5034360;28;20204;-73
2023/11/04 05:58:14;;;;;;;2.73;2.07;;;;;;;14.36;100.00;93445.38;5034823;28;20442;-73
2023/11/04 06:00:42;;;;;;;1.67;1.27;;;;;;;14.44;100.00;93455.81;5034954;28;20482;-73
2023/11/04 06:03:09;;;;;;;1.50;1.10;;;;;;;14.53;100.00;93450.25;4999896;28;20443;-73
2023/11/04 06:05:37;;;;;;;3.47;1.30;;;;;;;14.63;100.00;93449.91;5035241;28;20469;-73
2023/11/04 06:08:05;;;;;;;3.83;1.50;;;;;;;14.62;100.00;93447.47;5034808;28;20535;-74
2023/11/04 06:10:31;;;;;;;5.90;1.90;;;;;;;14.56;100.00;93459.63;5015901;28;20529;-74
2023/11/04 06:12:58;;;;;;;6.30;1.43;;;;;;;14.45;100.00;93437.16;5034693;28;20449;-73
2023/11/04 06:15:25;;;;;;;1.47;1.37;;;;;;;14.45;100.00;93436.34;5034727;28;20498;-73
2023/11/04 06:17:52;;;;;;;4.87;1.80;;;;;;;14.45;100.00;93436.34;5033977;28;20530;-73
2023/11/04 06:20:19;;;;;;;2.33;1.60;;;;;;;14.38;100.00;93409.88;5033908;28;21051;-72
2023/11/04 06:22:47;;;;;;;3.30;1.63;;;;;;;14.27;100.00;93381.38;5033981;28;20473;-73
2023/11/04 06:25:14;;;;;;;5.33;2.73;;;;;;;14.25;100.00;93360.44;5033073;28;20439;-74
2023/11/04 06:27:41;;;;;;;2.57;1.97;;;;;;;14.23;100.00;93351.91;5034237;28;20489;-74
2023/11/04 06:30:10;;;;;;;6.30;2.33;;;;;;;14.11;100.00;93347.31;5034193;28;20561;-74
2023/11/04 06:32:37;;;;;;;2.00;1.70;;;;;;;14.01;100.00;93347.63;5015485;28;20454;-73
2023/11/04 06:35:05;;;;;;;3.87;2.40;;;;;;;13.99;100.00;93369.94;5033828;28;20467;-73
2023/11/04 06:37:32;;;;;;;2.50;1.87;;;;;;;13.79;100.00;93377.63;5033728;28;20489;-74
2023/11/04 06:40:00;;;;;;;4.63;2.70;;;;;;;13.82;100.00;93393.06;5033234;28;20930;-74
2023/11/04 06:42:27;;;;;;;5.93;3.50;;;;;;;13.84;100.00;93406.88;4999090;28;20442;-74
2023/11/04 06:44:54;;;;;;;5.57;3.50;;;;;;;13.91;100.00;93418.34;5034364;28;20474;-74
2023/11/04 06:47:22;;;;;;;6.97;4.27;;;;;;;14.02;100.00;93428.41;5033896;28;20486;-74
2023/11/04 06:49:49;;;;;;;10.03;4.80;;;;;;;14.11;100.00;93427.25;5033846;28;20862;-74
2023/11/04 06:52:16;;;;;;;17.50;8.27;;;;;;;14.13;100.00;93433.16;5033978;28;20442;-74
2023/11/04 06:54:43;;;;;;;12.67;6.37;;;;;;;14.15;100.00;93436.44;5033368;28;20449;-74
2023/11/04 06:57:11;;;;;;;9.00;4.57;;;;;;;14.20;100.00;93423.53;5034124;28;20443;-73
2023/11/04 06:59:40;;;;;;;10.20;4.53;;;;;;;14.27;100.00;93399.84;5014866;28;20826;-74
2023/11/04 07:02:07;;;;;;;9.63;6.90;;;;;;;14.24;100.00;93377.28;5033823;28;20577;-74
2023/11/04 07:04:34;;;;;;;9.03;6.90;;;;;;;14.17;100.00;93360.59;4998261;28;20514;-74
2023/11/04 07:07:01;;;;;;;12.90;5.10;;;;;;;14.21;100.00;93377.66;4998218;28;20577;-74
2023/11/04 07:09:28;;;;;;;7.17;5.70;;;;;;;14.10;100.00;93374.69;5033542;28;20497;-73
2023/11/04 07:11:54;;;;;;;14.93;8.27;;;;;;;14.17;100.00;93365.03;5033915;28;20446;-71
2023/11/04 07:14:24;;;;;;;6.70;6.00;;;;;;;14.07;100.00;93372.44;5032907;28;20451;-74
2023/11/04 07:16:51;;;;;;;19.07;11.57;;;;;;;13.90;100.00;93375.34;5032915;28;20802;-73
2023/11/04 07:19:17;;;;;;;11.40;6.00;;;;;;;14.02;100.00;93377.47;5033045;28;20477;-73
2023/11/04 07:21:45;;;;;;;6.87;5.00;;;;;;;14.09;100.00;93380.97;5033307;28;20812;-74
2023/11/04 07:24:12;;;;;;;7.63;4.50;;;;;;;14.17;100.00;93400.16;5033251;28;20941;-73
2023/11/04 07:26:39;;;;;;;15.90;7.27;;;;;;;14.17;100.00;93409.88;4997938;28;20493;-74
2023/11/04 07:29:06;;;;;;;10.27;5.33;;;;;;;14.30;100.00;93441.66;5032998;28;20447;-73
2023/11/04 07:31:35;;;;;;;8.80;4.60;;;;;;;14.32;100.00;93434.38;5014199;28;20952;-74
2023/11/04 07:34:02;;;;;;;10.33;5.53;;;;;;;14.33;100.00;93408.81;4998078;28;20682;-74
2023/11/04 07:36:29;;;;;;;7.70;3.90;;;;;;;14.38;100.00;93433.63;5031994;28;20527;-73
2023/11/04 07:38:57;;;;;;;8.20;6.50;;;;;;;14.40;100.00;93462.47;5032728;28;20446;-73
2023/11/04 07:41:24;;;;;;;9.07;4.90;;;;;;;14.38;100.00;93475.84;5032659;28;20439;-74
2023/11/04 07:43:51;;;;;;;7.93;5.30;;;;;;;14.44;100.00;93488.31;5032500;28;20444;-72
2023/11/04 07:46:17;;;;;;;7.03;5.30;;;;;;;14.46;100.00;93488.16;5032758;28;20435;-74
2023/11/04 07:48:46;;;;;;;5.20;4.70;;;;;;;14.46;100.00;93496.88;5032277;28;20455;-73
2023/11/04 07:51:12;;;;;;;6.67;4.57;;;;;;;14.34;100.00;93476.41;5032585;28;20446;-74
2023/11/04 07:53:39;;;;;;;8.30;4.57;;;;;;;14.33;100.00;93470.31;5032776;28;20442;-73
2023/11/04 07:56:07;;;;;;;4.60;4.20;;;;;;;14.30;100.00;93468.06;5032566;28;20443;-73
2023/11/04 07:58:34;;;;;;;10.30;6.67;;;;;;;14.29;100.00;93469.06;5013934;28;20457;-74
2023/11/04 08:01:01;;;;;;;8.80;5.70;;;;;;;14.30;100.00;93460.13;5031972;28;20450;-74
2023/11/04 08:03:28;;;;;;;8.20;6.80;;;;;;;14.23;100.00;93452.16;5032514;28;20909;-74
2023/11/04 08:05:57;;;;;;;16.77;8.47;;;;;;;14.27;100.00;93456.06;5032504;28;20451;-74
2023/11/04 08:08:23;;;;;;;9.63;8.03;;;;;;;14.34;100.00;93471.94;5032626;28;20517;-74
2023/11/04 08:10:50;;;;;;;10.33;7.50;;;;;;;14.40;100.00;93484.38;5014010;28;20458;-74
2023/11/04 08:13:19;;;;;;;9.03;6.60;;;;;;;14.47;100.00;93501.16;5032489;28;20442;-73
2023/11/04 08:15:45;;;;;;;9.13;5.53;;;;;;;14.54;100.00;93512.59;5032459;28;20479;-74
2023/11/04 08:18:12;;;;;;;7.27;5.70;;;;;;;14.59;100.00;93527.06;5032972;28;20454;-74
2023/11/04 08:20:39;;;;;;;13.23;8.90;;;;;;;14.64;100.00;93527.31;5032512;28;20438;-74
2023/11/04 08:23:07;;;;;;;12.63;5.87;;;;;;;14.56;100.00;93522.97;5033294;28;20931;-74
2023/11/04 08:25:34;;;;;;;6.80;4.80;;;;;;;14.51;100.00;93520.91;5035310;28;20447;-74
2023/11/04 08:28:01;;;;;;;9.63;5.30;;;;;;;14.12;100.00;93525.69;5033481;28;20490;-73
2023/11/04 08:30:28;;;;;;;12.00;5.87;;;;;;;14.09;100.00;93526.88;5034886;28;20517;-74
2023/11/04 08:32:55;;;;;;;8.63;5.90;;;;;;;13.80;100.00;93450.44;5033351;28;20454;-73
2023/11/04 08:35:22;;;;;;;8.73;5.67;;;;;;;13.37;100.00;93395.00;5015305;28;20469;-74
2023/11/04 08:37:49;;;;;;;7.67;4.60;;;;;;;13.19;100.00;93350.59;4997812;28;20434;-74
2023/11/04 08:40:17;;;;;;;5.03;2.50;;;;;;;13.14;100.00;93331.03;5032444;28;20437;-74
2023/11/04 08:42:44;;;;;;;6.50;2.87;;;;;;;13.23;100.00;93314.16;5032127;28;20936;-73
2023/11/04 08:45:13;;;;;;;5.17;2.97;;;;;;;13.11;100.00;93312.97;5032921;28;20445;-75
2023/11/04 08:47:40;;;;;;;3.17;2.47;;;;;;;13.10;100.00;93300.81;5034590;28;20473;-72
2023/11/04 08:50:08;;;;;;;5.97;3.23;;;;;;;13.09;100.00;93307.06;5036782;28;20446;-74
2023/11/04 08:52:35;;;;;;;3.67;3.10;;;;;;;13.02;100.00;93307.81;5034455;28;20431;-74
2023/11/04 08:55:04;;;;;;;8.93;3.00;;;;;;;13.09;100.00;93307.06;5036381;28;20447;-73
2023/11/04 08:57:33;;;;;;;2.60;2.40;;;;;;;13.10;100.00;93309.53;5036536;28;20777;-73
2023/11/04 09:00:00;;;;;;;5.73;2.57;;;;;;;13.01;100.00;93323.81;5036732;28;20446;-73
2023/11/04 09:02:28;;;;;;;2.40;2.20;;;;;;;12.93;100.00;93308.91;5018140;28;20455;-73
2023/11/04 09:04:54;;;;;;;2.70;2.50;;;;;;;12.91;100.00;93304.81;5036410;28;20442;-73
2023/11/04 09:07:21;;;;;;;3.50;3.20;;;;;;;12.98;100.00;93295.19;5036860;28;20484;-74
2023/11/04 09:09:48;;;;;;;4.70;3.30;;;;;;;13.18;100.00;93300.72;5002237;28;20947;-73
2023/11/04 09:12:16;;;;;;;5.53;3.40;;;;;;;13.41;100.00;93308.50;5001462;28;20498;-74
2023/11/04 09:14:44;;;;;;;4.93;3.40;;;;;;;13.60;100.00;93311.34;5036062;28;20459;-74
2023/11/04 09:17:11;;;;;;;3.90;3.60;;;;;;;13.79;100.00;93303.81;5036348;28;20446;-73
2023/11/04 09:19:38;;;;;;;7.03;4.27;;;;;;;13.93;100.00;93289.75;5035924;28;20481;-74
2023/11/04 09:22:04;;;;;;;3.90;3.50;;;;;;;14.02;100.00;93290.44;5036695;28;20536;-73
2023/11/04 09:24:33;;;;;;;6.47;4.13;;;;;;;14.09;100.00;93273.66;5036636;28;20450;-73
2023/11/04 09:27:00;;;;;;;6.00;3.40;;;;;;;14.16;100.00;93255.22;5036419;28;20525;-73
2023/11/04 09:29:26;;;;;;;5.50;2.90;;;;;;;14.20;100.00;93254.69;5036261;28;20478;-74
2023/11/04 09:31:55;;;;;;;3.20;2.77;;;;;;;14.25;100.00;93241.72;5035963;28;20450;-73
2023/11/04 09:34:22;;;;;;;2.60;2.40;;;;;;;14.35;100.00;93230.81;5036500;28;20999;-74
2023/11/04 09:36:48;;;;;;;4.60;2.90;;;;;;;14.43;100.00;93232.50;5036002;28;20458;-73
2023/11/04 09:39:16;;;;;;;4.10;3.20;;;;;;;14.50;100.00;93220.19;5035622;28;20540;-74
2023/11/04 09:41:43;;;;;;;3.63;3.33;;;;;;;14.56;100.00;93212.28;5036944;28;20472;-75
2023/11/04 09:44:10;;;;;;;3.00;2.80;;;;;;;14.57;100.00;93213.13;5035485;28;20452;-73
2023/11/04 09:46:37;;;;;;;4.63;3.60;;;;;;;14.64;100.00;93224.50;5035197;28;20442;-74
2023/11/04 09:49:06;;;;;;;7.47;4.53;;;;;;;14.73;100.00;93225.16;5016705;28;20454;-74
2023/11/04 09:51:34;;;;;;;7.00;6.03;;;;;;;14.77;100.00;93223.78;5035335;28;20445;-73
2023/11/04 09:54:01;;;;;;;8.10;7.30;;;;;;;14.81;100.00;93225.00;5035728;28;20435;-74
2023/11/04 09:56:28;;;;;;;8.80;6.40;;;;;;;14.82;100.00;93229.28;5035209;28;20453;-72
2023/11/04 09:58:55;;;;;;;12.77;9.70;;;;;;;14.84;100.00;93237.81;4999693;28;20449;-74
2023/11/04 10:01:23;;;;;;;11.40;10.20;;;;;;;14.80;100.00;93233.94;4999980;28;20439;-73
2023/11/04 10:03:50;;;;;;;11.47;10.27;;;;;;;14.82;100.00;93232.72;5034927;28;20446;-74
2023/11/04 10:06:19;;;;;;;11.40;8.43;;;;;;;14.83;100.00;93238.84;5034520;28;20474;-74
2023/11/04 10:08:46;;;;;;;12.57;9.60;;;;;;;14.86;100.00;93239.25;5035203;28;20486;-75
2023/11/04 10:11:14;;;;;;;22.00;10.73;;;;;;;14.81;100.00;93246.94;5038770;28;20452;-74
2023/11/04 10:13:41;;;;;;;10.73;8.80;;;;;;;14.69;100.00;93261.69;5039405;28;20441;-74
2023/11/04 10:16:08;;;;;;;10.53;7.80;;;;;;;14.73;100.00;93252.38;5036718;28;20945;-74
2023/11/04 10:18:37;;;;;;;17.63;9.00;;;;;;;14.75;100.00;93233.72;5034493;28;20864;-74
2023/11/04 10:21:06;;;;;;;11.87;9.00;;;;;;;14.71;100.00;93201.59;5034795;28;20450;-73
2023/11/04 10:23:34;;;;;;;10.27;8.13;;;;;;;14.69;100.00;93176.41;5034350;28;20483;-74
2023/11/04 10:26:03;;;;;;;10.33;9.27;;;;;;;14.63;100.00;93179.84;5034254;28;20938;-74
2023/11/04 10:28:30;;;;;;;11.23;6.20;;;;;;;14.52;100.00;93183.84;5034951;28;20493;-73
2023/11/04 10:31:03;;;;;;;5.33;4.83;;;;;;;14.69;100.00;93189.59;5034823;28;20448;-74
2023/11/04 10:33:34;;;;;;;2.20;2.00;;;;;;;14.52;100.00;93165.38;5034997;28;20467;-73
2023/11/04 10:36:04;;;;;;;5.80;2.90;;;;;;;14.54;100.00;93173.91;4952007;28;20451;-74
2023/11/04 10:38:35;;;;;;;3.83;2.70;;;;;;;14.51;100.00;93183.03;5036032;28;20463;-74
2023/11/04 10:41:04;;;;;;;5.60;2.20;;;;;;;14.65;100.00;93220.84;5034883;28;20459;-73
2023/11/04 10:43:39;;;;;;;4.17;2.40;;;;;;;14.59;100.00;93242.75;5035950;28;20441;-74
2023/11/04 10:46:14;;;;;;;2.10;1.90;;;;;;;14.49;100.00;93247.59;5035113;28;20845;-73
2023/11/04 10:48:46;;;;;;;1.67;1.57;;;;;;;14.36;100.00;93258.81;5034098;28;20488;-73
2023/11/04 10:51:19;;;;;;;2.43;2.23;;;;;;;14.38;100.00;93233.06;5033634;28;20445;-73
2023/11/04 10:53:58;;;;;;;2.53;2.33;;;;;;;14.36;100.00;93192.84;5033655;28;20458;-74
2023/11/04 10:56:27;;;;;;;4.17;2.50;;;;;;;14.34;100.00;93223.09;5033377;28;20866;-74
2023/11/04 10:59:03;;;;;;;2.87;2.53;;;;;;;14.45;100.00;93248.97;5033306;28;20951;-74
2023/11/04 11:01:32;;;;;;;3.57;3.27;;;;;;;14.23;100.00;93258.75;5033866;28;20453;-74
2023/11/04 11:04:01;;;;;;;5.43;3.77;;;;;;;14.10;100.00;93262.09;5033030;28;20538;-73
2023/11/04 11:06:28;;;;;;;4.07;2.43;;;;;;;13.90;100.00;93242.69;5033397;28;20451;-74
2023/11/04 11:09:00;;;;;;;3.37;2.70;;;;;;;13.98;100.00;93234.63;5033932;28;20493;-74
2023/11/04 11:11:33;;;;;;;4.63;3.27;;;;;;;13.98;100.00;93229.34;5033262;28;20484;-74
2023/11/04 11:14:02;;;;;;;3.85;3.40;;;;;;;14.10;100.00;93211.97;5032508;28;20492;-73
2023/11/04 11:16:31;;;;;;;3.10;2.40;;;;;;;14.19;100.00;93207.38;5033717;28;20231;-72
2023/11/04 11:19:07;;;;;;;4.13;2.20;;;;;;;14.18;100.00;93167.00;5033058;28;20528;-73
2023/11/04 11:21:34;;;;;;;4.13;2.80;;;;;;;14.36;100.00;93115.53;5033064;28;20464;-73
2023/11/04 11:24:09;;;;;;;8.10;3.00;;;;;;;14.48;100.00;93114.00;5033093;28;20869;-72